sensor_id;sensor_type;location;lat;lon;timestamp;P1;durP1;ratioP1;P2;durP2;ratioP2
68858;SDS011;55864;49.238;8.092;2024-02-28T00:01:36;22.43;;;10.30;;
68858;SDS011;55864;49.238;8.092;2024-02-28T00:03:36;21.30;;;11.40;;
68858;SDS011;55864;49.238;8.092;2024-02-28T00:05:37;21.70;;;10.77;;
68858;SDS011;55864;49.238;8.092;2024-02-28T00:07:37;21.40;;;10.93;;
68858;SDS011;55864;49.238;8.092;2024-02-28T00:09:39;22.57;;;10.27;;
68858;SDS011;55864;49.238;8.092;2024-02-28T00:11:41;22.30;;;11.17;;
68858;SDS011;55864;49.238;8.092;2024-02-28T00:13:42;20.38;;;10.38;;
68858;SDS011;55864;49.238;8.092;2024-02-28T00:15:43;21.80;;;11.20;;
68858;SDS011;55864;49.238;8.092;2024-02-28T00:17:44;21.87;;;10.73;;
68858;SDS011;55864;49.238;8.092;2024-02-28T00:19:44;23.90;;;10.63;;
68858;SDS011;55864;49.238;8.092;2024-02-28T00:21:45;22.93;;;10.70;;
68858;SDS011;55864;49.238;8.092;2024-02-28T00:23:45;21.47;;;10.90;;
68858;SDS011;55864;49.238;8.092;2024-02-28T00:25:47;22.17;;;10.90;;
68858;SDS011;55864;49.238;8.092;2024-02-28T00:27:48;21.43;;;10.40;;
68858;SDS011;55864;49.238;8.092;2024-02-28T00:29:48;25.53;;;11.43;;
68858;SDS011;55864;49.238;8.092;2024-02-28T00:31:49;21.10;;;10.60;;
68858;SDS011;55864;49.238;8.092;2024-02-28T00:33:49;24.40;;;10.80;;
68858;SDS011;55864;49.238;8.092;2024-02-28T00:35:50;23.27;;;10.97;;
68858;SDS011;55864;49.238;8.092;2024-02-28T00:37:50;20.50;;;10.67;;
68858;SDS011;55864;49.238;8.092;2024-02-28T00:39:51;22.57;;;11.10;;
68858;SDS011;55864;49.238;8.092;2024-02-28T00:41:53;23.43;;;11.30;;
68858;SDS011;55864;49.238;8.092;2024-02-28T00:43:54;22.70;;;11.47;;
68858;SDS011;55864;49.238;8.092;2024-02-28T00:45:54;24.93;;;11.43;;
68858;SDS011;55864;49.238;8.092;2024-02-28T00:47:55;21.70;;;11.30;;
68858;SDS011;55864;49.238;8.092;2024-02-28T00:49:55;22.00;;;10.87;;
68858;SDS011;55864;49.238;8.092;2024-02-28T00:51:56;22.53;;;10.67;;
68858;SDS011;55864;49.238;8.092;2024-02-28T00:53:56;20.53;;;10.37;;
68858;SDS011;55864;49.238;8.092;2024-02-28T00:55:57;21.10;;;10.23;;
68858;SDS011;55864;49.238;8.092;2024-02-28T00:57:59;21.20;;;10.40;;
68858;SDS011;55864;49.238;8.092;2024-02-28T00:59:59;20.47;;;9.63;;
68858;SDS011;55864;49.238;8.092;2024-02-28T01:02:00;20.97;;;10.27;;
68858;SDS011;55864;49.238;8.092;2024-02-28T01:04:01;19.97;;;9.87;;
68858;SDS011;55864;49.238;8.092;2024-02-28T01:06:01;24.03;;;10.47;;
68858;SDS011;55864;49.238;8.092;2024-02-28T01:08:02;18.93;;;9.33;;
68858;SDS011;55864;49.238;8.092;2024-02-28T01:10:04;21.83;;;10.37;;
68858;SDS011;55864;49.238;8.092;2024-02-28T01:12:05;21.00;;;10.30;;
68858;SDS011;55864;49.238;8.092;2024-02-28T01:14:07;21.17;;;10.40;;
68858;SDS011;55864;49.238;8.092;2024-02-28T01:16:07;18.90;;;10.10;;
68858;SDS011;55864;49.238;8.092;2024-02-28T01:18:08;19.47;;;10.30;;
68858;SDS011;55864;49.238;8.092;2024-02-28T01:20:09;20.30;;;9.97;;
68858;SDS011;55864;49.238;8.092;2024-02-28T01:22:10;21.93;;;10.63;;
68858;SDS011;55864;49.238;8.092;2024-02-28T01:24:11;22.30;;;10.20;;
68858;SDS011;55864;49.238;8.092;2024-02-28T01:26:11;21.20;;;10.20;;
68858;SDS011;55864;49.238;8.092;2024-02-28T01:28:12;21.53;;;10.63;;
68858;SDS011;55864;49.238;8.092;2024-02-28T01:30:14;24.93;;;11.27;;
68858;SDS011;55864;49.238;8.092;2024-02-28T01:32:15;25.80;;;11.23;;
68858;SDS011;55864;49.238;8.092;2024-02-28T01:34:15;22.30;;;11.37;;
68858;SDS011;55864;49.238;8.092;2024-02-28T01:36:16;26.47;;;11.33;;
68858;SDS011;55864;49.238;8.092;2024-02-28T01:38:16;25.40;;;12.10;;
68858;SDS011;55864;49.238;8.092;2024-02-28T01:40:17;24.93;;;11.43;;
68858;SDS011;55864;49.238;8.092;2024-02-28T01:42:17;24.20;;;11.70;;
68858;SDS011;55864;49.238;8.092;2024-02-28T01:44:18;23.80;;;12.27;;
68858;SDS011;55864;49.238;8.092;2024-02-28T01:46:22;24.33;;;12.77;;
68858;SDS011;55864;49.238;8.092;2024-02-28T01:48:23;23.33;;;11.60;;
68858;SDS011;55864;49.238;8.092;2024-02-28T01:50:24;25.13;;;12.10;;
68858;SDS011;55864;49.238;8.092;2024-02-28T01:52:25;23.90;;;12.23;;
68858;SDS011;55864;49.238;8.092;2024-02-28T01:54:25;24.40;;;12.13;;
68858;SDS011;55864;49.238;8.092;2024-02-28T01:56:28;24.40;;;12.05;;
68858;SDS011;55864;49.238;8.092;2024-02-28T01:58:29;24.40;;;11.63;;
68858;SDS011;55864;49.238;8.092;2024-02-28T02:00:30;24.70;;;11.77;;
68858;SDS011;55864;49.238;8.092;2024-02-28T02:02:34;24.70;;;11.93;;
68858;SDS011;55864;49.238;8.092;2024-02-28T02:04:34;22.73;;;11.27;;
68858;SDS011;55864;49.238;8.092;2024-02-28T02:06:35;24.13;;;12.77;;
68858;SDS011;55864;49.238;8.092;2024-02-28T02:10:39;23.17;;;11.43;;
68858;SDS011;55864;49.238;8.092;2024-02-28T02:12:40;22.90;;;11.00;;
68858;SDS011;55864;49.238;8.092;2024-02-28T02:14:40;26.07;;;11.97;;
68858;SDS011;55864;49.238;8.092;2024-02-28T02:16:41;26.33;;;11.73;;
68858;SDS011;55864;49.238;8.092;2024-02-28T02:18:43;24.73;;;12.07;;
68858;SDS011;55864;49.238;8.092;2024-02-28T02:20:44;27.67;;;13.43;;
68858;SDS011;55864;49.238;8.092;2024-02-28T02:22:51;25.80;;;12.63;;
68858;SDS011;55864;49.238;8.092;2024-02-28T02:24:52;27.80;;;13.30;;
68858;SDS011;55864;49.238;8.092;2024-02-28T02:26:54;27.53;;;12.70;;
68858;SDS011;55864;49.238;8.092;2024-02-28T02:28:55;27.63;;;12.68;;
68858;SDS011;55864;49.238;8.092;2024-02-28T02:30:56;30.13;;;12.70;;
68858;SDS011;55864;49.238;8.092;2024-02-28T02:32:56;28.03;;;13.03;;
68858;SDS011;55864;49.238;8.092;2024-02-28T02:34:57;27.00;;;13.07;;
68858;SDS011;55864;49.238;8.092;2024-02-28T02:36:57;27.93;;;12.80;;
68858;SDS011;55864;49.238;8.092;2024-02-28T02:38:59;25.87;;;12.13;;
68858;SDS011;55864;49.238;8.092;2024-02-28T02:41:00;27.00;;;12.57;;
68858;SDS011;55864;49.238;8.092;2024-02-28T02:43:00;26.17;;;12.63;;
68858;SDS011;55864;49.238;8.092;2024-02-28T02:45:01;28.93;;;13.30;;
68858;SDS011;55864;49.238;8.092;2024-02-28T02:47:01;26.83;;;12.97;;
68858;SDS011;55864;49.238;8.092;2024-02-28T02:49:02;27.40;;;12.40;;
68858;SDS011;55864;49.238;8.092;2024-02-28T02:51:02;27.23;;;12.90;;
68858;SDS011;55864;49.238;8.092;2024-02-28T02:53:03;26.30;;;12.70;;
68858;SDS011;55864;49.238;8.092;2024-02-28T02:55:06;29.03;;;13.33;;
68858;SDS011;55864;49.238;8.092;2024-02-28T02:57:07;26.80;;;12.77;;
68858;SDS011;55864;49.238;8.092;2024-02-28T02:59:07;28.33;;;13.50;;
68858;SDS011;55864;49.238;8.092;2024-02-28T03:01:08;27.80;;;13.30;;
68858;SDS011;55864;49.238;8.092;2024-02-28T03:03:08;28.03;;;12.60;;
68858;SDS011;55864;49.238;8.092;2024-02-28T03:05:09;27.70;;;12.97;;
68858;SDS011;55864;49.238;8.092;2024-02-28T03:07:09;29.20;;;13.00;;
68858;SDS011;55864;49.238;8.092;2024-02-28T03:09:10;29.73;;;12.47;;
68858;SDS011;55864;49.238;8.092;2024-02-28T03:11:12;28.80;;;13.60;;
68858;SDS011;55864;49.238;8.092;2024-02-28T03:13:12;26.10;;;13.07;;
68858;SDS011;55864;49.238;8.092;2024-02-28T03:15:13;28.83;;;13.13;;
68858;SDS011;55864;49.238;8.092;2024-02-28T03:17:13;28.73;;;13.10;;
68858;SDS011;55864;49.238;8.092;2024-02-28T03:19:14;26.87;;;13.33;;
68858;SDS011;55864;49.238;8.092;2024-02-28T03:21:29;27.03;;;13.67;;
68858;SDS011;55864;49.238;8.092;2024-02-28T03:23:30;28.53;;;13.97;;
68858;SDS011;55864;49.238;8.092;2024-02-28T03:25:32;26.93;;;13.23;;
68858;SDS011;55864;49.238;8.092;2024-02-28T03:27:34;27.40;;;13.27;;
68858;SDS011;55864;49.238;8.092;2024-02-28T03:29:34;30.13;;;13.83;;
68858;SDS011;55864;49.238;8.092;2024-02-28T03:31:35;28.13;;;13.33;;
68858;SDS011;55864;49.238;8.092;2024-02-28T03:33:36;28.70;;;13.03;;
68858;SDS011;55864;49.238;8.092;2024-02-28T03:35:36;26.87;;;12.67;;
68858;SDS011;55864;49.238;8.092;2024-02-28T03:37:37;27.73;;;13.07;;
68858;SDS011;55864;49.238;8.092;2024-02-28T03:39:37;28.63;;;13.57;;
68858;SDS011;55864;49.238;8.092;2024-02-28T03:41:38;28.30;;;11.97;;
68858;SDS011;55864;49.238;8.092;2024-02-28T03:43:40;27.57;;;13.47;;
68858;SDS011;55864;49.238;8.092;2024-02-28T03:45:40;31.80;;;13.97;;
68858;SDS011;55864;49.238;8.092;2024-02-28T03:47:41;28.83;;;12.50;;
68858;SDS011;55864;49.238;8.092;2024-02-28T03:49:41;28.40;;;12.87;;
68858;SDS011;55864;49.238;8.092;2024-02-28T03:51:42;28.53;;;13.87;;
68858;SDS011;55864;49.238;8.092;2024-02-28T03:53:43;28.23;;;13.40;;
68858;SDS011;55864;49.238;8.092;2024-02-28T03:55:43;27.50;;;12.60;;
68858;SDS011;55864;49.238;8.092;2024-02-28T03:57:46;28.20;;;13.70;;
68858;SDS011;55864;49.238;8.092;2024-02-28T03:59:48;28.95;;;13.50;;
68858;SDS011;55864;49.238;8.092;2024-02-28T04:01:49;28.47;;;12.83;;
68858;SDS011;55864;49.238;8.092;2024-02-28T04:03:49;25.50;;;11.87;;
68858;SDS011;55864;49.238;8.092;2024-02-28T04:05:50;27.53;;;13.13;;
68858;SDS011;55864;49.238;8.092;2024-02-28T04:07:50;27.47;;;12.03;;
68858;SDS011;55864;49.238;8.092;2024-02-28T04:09:51;28.07;;;12.23;;
68858;SDS011;55864;49.238;8.092;2024-02-28T04:11:51;26.00;;;12.20;;
68858;SDS011;55864;49.238;8.092;2024-02-28T04:13:52;26.67;;;13.00;;
68858;SDS011;55864;49.238;8.092;2024-02-28T04:15:54;25.57;;;11.87;;
68858;SDS011;55864;49.238;8.092;2024-02-28T04:17:54;26.97;;;12.17;;
68858;SDS011;55864;49.238;8.092;2024-02-28T04:19:55;26.30;;;13.10;;
68858;SDS011;55864;49.238;8.092;2024-02-28T04:21:55;25.20;;;11.67;;
68858;SDS011;55864;49.238;8.092;2024-02-28T04:23:56;25.73;;;12.30;;
68858;SDS011;55864;49.238;8.092;2024-02-28T04:25:57;27.50;;;12.57;;
68858;SDS011;55864;49.238;8.092;2024-02-28T04:27:57;27.20;;;13.10;;
68858;SDS011;55864;49.238;8.092;2024-02-28T04:29:58;25.27;;;12.37;;
68858;SDS011;55864;49.238;8.092;2024-02-28T04:31:59;26.93;;;12.57;;
68858;SDS011;55864;49.238;8.092;2024-02-28T04:34:00;26.07;;;12.67;;
68858;SDS011;55864;49.238;8.092;2024-02-28T04:36:01;25.10;;;12.03;;
68858;SDS011;55864;49.238;8.092;2024-02-28T04:38:01;27.23;;;12.27;;
68858;SDS011;55864;49.238;8.092;2024-02-28T04:40:02;23.50;;;10.90;;
68858;SDS011;55864;49.238;8.092;2024-02-28T04:42:02;24.63;;;10.97;;
68858;SDS011;55864;49.238;8.092;2024-02-28T04:44:03;24.30;;;11.00;;
68858;SDS011;55864;49.238;8.092;2024-02-28T04:46:04;21.90;;;10.20;;
68858;SDS011;55864;49.238;8.092;2024-02-28T04:48:06;24.87;;;11.27;;
68858;SDS011;55864;49.238;8.092;2024-02-28T04:50:07;22.48;;;11.48;;
68858;SDS011;55864;49.238;8.092;2024-02-28T04:52:09;20.83;;;10.03;;
68858;SDS011;55864;49.238;8.092;2024-02-28T04:54:10;25.17;;;11.13;;
68858;SDS011;55864;49.238;8.092;2024-02-28T04:56:11;22.57;;;10.30;;
68858;SDS011;55864;49.238;8.092;2024-02-28T04:58:11;22.07;;;10.33;;
68858;SDS011;55864;49.238;8.092;2024-02-28T05:00:12;22.57;;;10.20;;
68858;SDS011;55864;49.238;8.092;2024-02-28T05:02:13;21.80;;;10.30;;
68858;SDS011;55864;49.238;8.092;2024-02-28T05:04:15;22.53;;;10.57;;
68858;SDS011;55864;49.238;8.092;2024-02-28T05:06:15;20.40;;;10.10;;
68858;SDS011;55864;49.238;8.092;2024-02-28T05:08:16;23.47;;;9.90;;
68858;SDS011;55864;49.238;8.092;2024-02-28T05:10:17;25.10;;;9.73;;
68858;SDS011;55864;49.238;8.092;2024-02-28T05:12:17;21.10;;;9.70;;
68858;SDS011;55864;49.238;8.092;2024-02-28T05:14:18;20.03;;;9.97;;
68858;SDS011;55864;49.238;8.092;2024-02-28T05:16:18;21.57;;;10.73;;
68858;SDS011;55864;49.238;8.092;2024-02-28T05:18:19;22.80;;;10.27;;
68858;SDS011;55864;49.238;8.092;2024-02-28T05:20:21;26.20;;;10.60;;
68858;SDS011;55864;49.238;8.092;2024-02-28T05:22:22;25.77;;;11.13;;
68858;SDS011;55864;49.238;8.092;2024-02-28T05:24:22;24.07;;;11.73;;
68858;SDS011;55864;49.238;8.092;2024-02-28T05:26:23;25.80;;;11.30;;
68858;SDS011;55864;49.238;8.092;2024-02-28T05:28:23;26.17;;;11.50;;
68858;SDS011;55864;49.238;8.092;2024-02-28T05:30:24;24.13;;;11.40;;
68858;SDS011;55864;49.238;8.092;2024-02-28T05:32:24;26.97;;;11.67;;
68858;SDS011;55864;49.238;8.092;2024-02-28T05:34:25;27.23;;;12.00;;
68858;SDS011;55864;49.238;8.092;2024-02-28T05:36:27;25.90;;;11.57;;
68858;SDS011;55864;49.238;8.092;2024-02-28T05:38:29;28.55;;;12.63;;
68858;SDS011;55864;49.238;8.092;2024-02-28T05:40:29;26.63;;;12.60;;
68858;SDS011;55864;49.238;8.092;2024-02-28T05:42:30;26.97;;;13.07;;
68858;SDS011;55864;49.238;8.092;2024-02-28T05:44:30;29.53;;;13.33;;
68858;SDS011;55864;49.238;8.092;2024-02-28T05:46:31;29.93;;;14.27;;
68858;SDS011;55864;49.238;8.092;2024-02-28T05:48:31;28.53;;;13.40;;
68858;SDS011;55864;49.238;8.092;2024-02-28T05:50:32;31.33;;;12.47;;
68858;SDS011;55864;49.238;8.092;2024-02-28T05:52:34;28.80;;;13.23;;
68858;SDS011;55864;49.238;8.092;2024-02-28T05:54:34;26.20;;;12.27;;
68858;SDS011;55864;49.238;8.092;2024-02-28T05:56:35;32.83;;;13.77;;
68858;SDS011;55864;49.238;8.092;2024-02-28T05:58:35;34.80;;;13.50;;
68858;SDS011;55864;49.238;8.092;2024-02-28T06:00:36;31.23;;;13.57;;
68858;SDS011;55864;49.238;8.092;2024-02-28T06:02:37;29.10;;;13.03;;
68858;SDS011;55864;49.238;8.092;2024-02-28T06:04:37;29.00;;;13.37;;
68858;SDS011;55864;49.238;8.092;2024-02-28T06:06:39;30.40;;;13.27;;
68858;SDS011;55864;49.238;8.092;2024-02-28T06:08:42;32.53;;;13.90;;
68858;SDS011;55864;49.238;8.092;2024-02-28T06:10:43;38.22;;;14.90;;
68858;SDS011;55864;49.238;8.092;2024-02-28T06:12:44;33.20;;;14.23;;
68858;SDS011;55864;49.238;8.092;2024-02-28T06:14:44;33.17;;;13.43;;
68858;SDS011;55864;49.238;8.092;2024-02-28T06:16:46;30.57;;;13.67;;
68858;SDS011;55864;49.238;8.092;2024-02-28T06:18:47;28.20;;;12.37;;
68858;SDS011;55864;49.238;8.092;2024-02-28T06:20:47;27.93;;;12.03;;
68858;SDS011;55864;49.238;8.092;2024-02-28T06:22:48;26.57;;;11.47;;
68858;SDS011;55864;49.238;8.092;2024-02-28T06:24:50;29.33;;;13.07;;
68858;SDS011;55864;49.238;8.092;2024-02-28T06:26:50;33.90;;;13.90;;
68858;SDS011;55864;49.238;8.092;2024-02-28T06:28:51;35.43;;;17.03;;
68858;SDS011;55864;49.238;8.092;2024-02-28T06:30:51;30.07;;;15.17;;
68858;SDS011;55864;49.238;8.092;2024-02-28T06:32:52;25.70;;;12.43;;
68858;SDS011;55864;49.238;8.092;2024-02-28T06:34:53;26.07;;;11.70;;
68858;SDS011;55864;49.238;8.092;2024-02-28T06:36:53;25.77;;;11.60;;
68858;SDS011;55864;49.238;8.092;2024-02-28T06:38:54;29.93;;;13.47;;
68858;SDS011;55864;49.238;8.092;2024-02-28T06:40:55;24.40;;;11.33;;
68858;SDS011;55864;49.238;8.092;2024-02-28T06:42:56;28.53;;;11.90;;
68858;SDS011;55864;49.238;8.092;2024-02-28T06:44:56;26.50;;;11.53;;
68858;SDS011;55864;49.238;8.092;2024-02-28T06:46:57;25.30;;;11.83;;
68858;SDS011;55864;49.238;8.092;2024-02-28T06:48:57;28.03;;;10.90;;
68858;SDS011;55864;49.238;8.092;2024-02-28T06:50:58;28.20;;;11.27;;
68858;SDS011;55864;49.238;8.092;2024-02-28T06:52:58;22.63;;;10.57;;
68858;SDS011;55864;49.238;8.092;2024-02-28T06:54:59;27.17;;;11.67;;
68858;SDS011;55864;49.238;8.092;2024-02-28T06:57:01;25.17;;;11.87;;
68858;SDS011;55864;49.238;8.092;2024-02-28T06:59:01;25.03;;;11.43;;
68858;SDS011;55864;49.238;8.092;2024-02-28T07:01:02;23.57;;;10.87;;
68858;SDS011;55864;49.238;8.092;2024-02-28T07:03:03;24.33;;;10.77;;
68858;SDS011;55864;49.238;8.092;2024-02-28T07:05:04;27.20;;;11.57;;
68858;SDS011;55864;49.238;8.092;2024-02-28T07:07:05;28.30;;;11.50;;
68858;SDS011;55864;49.238;8.092;2024-02-28T07:09:07;23.63;;;10.93;;
68858;SDS011;55864;49.238;8.092;2024-02-28T07:11:12;25.00;;;11.73;;
68858;SDS011;55864;49.238;8.092;2024-02-28T07:13:14;27.63;;;11.90;;
68858;SDS011;55864;49.238;8.092;2024-02-28T07:15:15;28.37;;;12.57;;
68858;SDS011;55864;49.238;8.092;2024-02-28T07:17:16;25.67;;;11.33;;
68858;SDS011;55864;49.238;8.092;2024-02-28T07:19:16;27.83;;;12.93;;
68858;SDS011;55864;49.238;8.092;2024-02-28T07:21:17;27.93;;;12.93;;
68858;SDS011;55864;49.238;8.092;2024-02-28T07:23:17;30.73;;;13.30;;
68858;SDS011;55864;49.238;8.092;2024-02-28T07:25:18;31.60;;;13.17;;
68858;SDS011;55864;49.238;8.092;2024-02-28T07:27:18;30.80;;;13.67;;
68858;SDS011;55864;49.238;8.092;2024-02-28T07:29:20;31.23;;;14.50;;
68858;SDS011;55864;49.238;8.092;2024-02-28T07:31:21;33.07;;;15.40;;
68858;SDS011;55864;49.238;8.092;2024-02-28T07:33:21;28.87;;;14.00;;
68858;SDS011;55864;49.238;8.092;2024-02-28T07:35:22;33.90;;;14.50;;
68858;SDS011;55864;49.238;8.092;2024-02-28T07:37:22;33.23;;;14.00;;
68858;SDS011;55864;49.238;8.092;2024-02-28T07:39:23;36.07;;;16.37;;
68858;SDS011;55864;49.238;8.092;2024-02-28T07:41:23;32.07;;;14.33;;
68858;SDS011;55864;49.238;8.092;2024-02-28T07:43:24;44.63;;;18.03;;
68858;SDS011;55864;49.238;8.092;2024-02-28T07:45:26;36.53;;;16.17;;
68858;SDS011;55864;49.238;8.092;2024-02-28T07:47:26;33.83;;;15.53;;
68858;SDS011;55864;49.238;8.092;2024-02-28T07:49:27;38.33;;;16.30;;
68858;SDS011;55864;49.238;8.092;2024-02-28T07:51:27;37.93;;;16.00;;
68858;SDS011;55864;49.238;8.092;2024-02-28T07:53:28;34.33;;;14.80;;
68858;SDS011;55864;49.238;8.092;2024-02-28T07:55:28;39.60;;;16.93;;
68858;SDS011;55864;49.238;8.092;2024-02-28T07:57:29;36.07;;;15.80;;
68858;SDS011;55864;49.238;8.092;2024-02-28T07:59:31;38.73;;;15.93;;
68858;SDS011;55864;49.238;8.092;2024-02-28T08:01:32;38.00;;;16.40;;
68858;SDS011;55864;49.238;8.092;2024-02-28T08:03:33;38.23;;;16.50;;
68858;SDS011;55864;49.238;8.092;2024-02-28T08:05:33;37.83;;;16.47;;
68858;SDS011;55864;49.238;8.092;2024-02-28T08:07:34;40.87;;;16.40;;
68858;SDS011;55864;49.238;8.092;2024-02-28T08:09:34;38.10;;;16.97;;
68858;SDS011;55864;49.238;8.092;2024-02-28T08:11:35;39.63;;;16.97;;
68858;SDS011;55864;49.238;8.092;2024-02-28T08:13:35;43.53;;;17.13;;
68858;SDS011;55864;49.238;8.092;2024-02-28T08:15:36;40.63;;;16.93;;
68858;SDS011;55864;49.238;8.092;2024-02-28T08:17:38;36.73;;;16.17;;
68858;SDS011;55864;49.238;8.092;2024-02-28T08:19:40;38.53;;;16.53;;
68858;SDS011;55864;49.238;8.092;2024-02-28T08:21:41;37.17;;;16.13;;
68858;SDS011;55864;49.238;8.092;2024-02-28T08:23:41;37.37;;;16.57;;
68858;SDS011;55864;49.238;8.092;2024-02-28T08:25:42;34.33;;;15.93;;
68858;SDS011;55864;49.238;8.092;2024-02-28T08:27:42;37.90;;;15.60;;
68858;SDS011;55864;49.238;8.092;2024-02-28T08:29:43;38.87;;;16.33;;
68858;SDS011;55864;49.238;8.092;2024-02-28T08:31:44;36.27;;;16.87;;
68858;SDS011;55864;49.238;8.092;2024-02-28T08:33:45;38.00;;;16.93;;
68858;SDS011;55864;49.238;8.092;2024-02-28T08:35:46;34.93;;;16.23;;
68858;SDS011;55864;49.238;8.092;2024-02-28T08:37:46;39.37;;;16.57;;
68858;SDS011;55864;49.238;8.092;2024-02-28T08:39:47;36.43;;;15.77;;
68858;SDS011;55864;49.238;8.092;2024-02-28T08:41:47;37.83;;;16.50;;
68858;SDS011;55864;49.238;8.092;2024-02-28T08:43:48;41.67;;;16.67;;
68858;SDS011;55864;49.238;8.092;2024-02-28T08:45:48;35.10;;;15.43;;
68858;SDS011;55864;49.238;8.092;2024-02-28T08:47:49;34.43;;;15.97;;
68858;SDS011;55864;49.238;8.092;2024-02-28T08:49:51;37.73;;;17.63;;
68858;SDS011;55864;49.238;8.092;2024-02-28T08:51:51;35.87;;;16.20;;
68858;SDS011;55864;49.238;8.092;2024-02-28T08:53:52;38.20;;;16.63;;
68858;SDS011;55864;49.238;8.092;2024-02-28T08:55:52;38.07;;;16.07;;
68858;SDS011;55864;49.238;8.092;2024-02-28T08:57:53;35.50;;;15.43;;
68858;SDS011;55864;49.238;8.092;2024-02-28T08:59:53;33.10;;;15.70;;
68858;SDS011;55864;49.238;8.092;2024-02-28T09:01:54;35.50;;;15.80;;
68858;SDS011;55864;49.238;8.092;2024-02-28T09:03:54;34.33;;;15.97;;
68858;SDS011;55864;49.238;8.092;2024-02-28T09:05:56;32.63;;;15.80;;
68858;SDS011;55864;49.238;8.092;2024-02-28T09:07:57;36.40;;;16.53;;
68858;SDS011;55864;49.238;8.092;2024-02-28T09:09:57;36.33;;;16.17;;
68858;SDS011;55864;49.238;8.092;2024-02-28T09:11:58;37.40;;;17.63;;
68858;SDS011;55864;49.238;8.092;2024-02-28T09:13:58;39.20;;;16.70;;
68858;SDS011;55864;49.238;8.092;2024-02-28T09:15:59;36.30;;;16.27;;
68858;SDS011;55864;49.238;8.092;2024-02-28T09:17:59;36.03;;;15.97;;
68858;SDS011;55864;49.238;8.092;2024-02-28T09:20:00;39.90;;;15.93;;
68858;SDS011;55864;49.238;8.092;2024-02-28T09:22:02;38.97;;;16.93;;
68858;SDS011;55864;49.238;8.092;2024-02-28T09:24:03;41.20;;;15.90;;
68858;SDS011;55864;49.238;8.092;2024-02-28T09:26:04;36.83;;;16.10;;
68858;SDS011;55864;49.238;8.092;2024-02-28T09:28:04;36.60;;;16.47;;
68858;SDS011;55864;49.238;8.092;2024-02-28T09:30:06;36.30;;;16.57;;
68858;SDS011;55864;49.238;8.092;2024-02-28T09:32:07;36.50;;;16.67;;
68858;SDS011;55864;49.238;8.092;2024-02-28T09:34:07;35.07;;;16.60;;
68858;SDS011;55864;49.238;8.092;2024-02-28T09:36:08;37.67;;;16.03;;
68858;SDS011;55864;49.238;8.092;2024-02-28T09:38:10;37.80;;;15.83;;
68858;SDS011;55864;49.238;8.092;2024-02-28T09:40:11;32.57;;;15.37;;
68858;SDS011;55864;49.238;8.092;2024-02-28T09:42:12;34.73;;;15.30;;
68858;SDS011;55864;49.238;8.092;2024-02-28T09:44:14;31.70;;;14.73;;
68858;SDS011;55864;49.238;8.092;2024-02-28T09:46:16;31.87;;;15.00;;
68858;SDS011;55864;49.238;8.092;2024-02-28T09:48:16;32.93;;;15.27;;
68858;SDS011;55864;49.238;8.092;2024-02-28T09:50:19;32.30;;;14.80;;
68858;SDS011;55864;49.238;8.092;2024-02-28T09:52:20;31.30;;;14.90;;
68858;SDS011;55864;49.238;8.092;2024-02-28T09:54:22;32.87;;;15.13;;
68858;SDS011;55864;49.238;8.092;2024-02-28T09:56:22;33.63;;;15.13;;
68858;SDS011;55864;49.238;8.092;2024-02-28T09:58:23;36.97;;;16.73;;
68858;SDS011;55864;49.238;8.092;2024-02-28T10:00:26;34.70;;;15.93;;
68858;SDS011;55864;49.238;8.092;2024-02-28T10:02:27;33.30;;;15.37;;
68858;SDS011;55864;49.238;8.092;2024-02-28T10:04:29;35.33;;;15.70;;
68858;SDS011;55864;49.238;8.092;2024-02-28T10:06:30;34.83;;;16.13;;
68858;SDS011;55864;49.238;8.092;2024-02-28T10:08:31;35.03;;;15.97;;
68858;SDS011;55864;49.238;8.092;2024-02-28T10:10:33;35.87;;;16.57;;
68858;SDS011;55864;49.238;8.092;2024-02-28T10:12:33;34.73;;;16.10;;
68858;SDS011;55864;49.238;8.092;2024-02-28T10:14:34;33.70;;;16.63;;
68858;SDS011;55864;49.238;8.092;2024-02-28T10:16:34;35.77;;;16.30;;
68858;SDS011;55864;49.238;8.092;2024-02-28T10:18:35;42.60;;;15.60;;
68858;SDS011;55864;49.238;8.092;2024-02-28T10:20:35;68.00;;;18.97;;
68858;SDS011;55864;49.238;8.092;2024-02-28T10:22:36;36.13;;;15.53;;
68858;SDS011;55864;49.238;8.092;2024-02-28T10:24:38;34.60;;;15.53;;
68858;SDS011;55864;49.238;8.092;2024-02-28T10:26:43;68.57;;;18.37;;
68858;SDS011;55864;49.238;8.092;2024-02-28T10:28:44;39.17;;;16.60;;
68858;SDS011;55864;49.238;8.092;2024-02-28T10:30:45;72.43;;;19.43;;
68858;SDS011;55864;49.238;8.092;2024-02-28T10:32:48;46.20;;;16.93;;
68858;SDS011;55864;49.238;8.092;2024-02-28T10:34:49;39.90;;;17.20;;
68858;SDS011;55864;49.238;8.092;2024-02-28T10:36:50;39.63;;;16.33;;
68858;SDS011;55864;49.238;8.092;2024-02-28T10:38:51;49.87;;;18.30;;
68858;SDS011;55864;49.238;8.092;2024-02-28T10:40:53;42.57;;;18.00;;
68858;SDS011;55864;49.238;8.092;2024-02-28T10:42:55;39.40;;;16.10;;
68858;SDS011;55864;49.238;8.092;2024-02-28T10:44:59;36.83;;;15.43;;
68858;SDS011;55864;49.238;8.092;2024-02-28T10:47:01;28.97;;;14.10;;
68858;SDS011;55864;49.238;8.092;2024-02-28T10:49:02;30.17;;;14.13;;
68858;SDS011;55864;49.238;8.092;2024-02-28T10:51:04;35.08;;;14.50;;
68858;SDS011;55864;49.238;8.092;2024-02-28T10:53:05;31.88;;;15.70;;
68858;SDS011;55864;49.238;8.092;2024-02-28T10:55:13;34.77;;;14.93;;
68858;SDS011;55864;49.238;8.092;2024-02-28T10:57:14;35.70;;;16.10;;
68858;SDS011;55864;49.238;8.092;2024-02-28T10:59:18;45.55;;;17.65;;
68858;SDS011;55864;49.238;8.092;2024-02-28T11:01:21;54.07;;;17.97;;
68858;SDS011;55864;49.238;8.092;2024-02-28T11:03:22;36.13;;;15.10;;
68858;SDS011;55864;49.238;8.092;2024-02-28T11:05:22;34.80;;;14.47;;
68858;SDS011;55864;49.238;8.092;2024-02-28T11:07:23;31.83;;;14.63;;
68858;SDS011;55864;49.238;8.092;2024-02-28T11:09:24;35.28;;;16.88;;
68858;SDS011;55864;49.238;8.092;2024-02-28T11:11:31;34.07;;;16.33;;
68858;SDS011;55864;49.238;8.092;2024-02-28T11:15:33;33.97;;;14.23;;
68858;SDS011;55864;49.238;8.092;2024-02-28T11:17:34;30.90;;;14.30;;
68858;SDS011;55864;49.238;8.092;2024-02-28T11:19:34;38.25;;;15.27;;
68858;SDS011;55864;49.238;8.092;2024-02-28T11:21:35;32.07;;;15.00;;
68858;SDS011;55864;49.238;8.092;2024-02-28T11:23:35;36.17;;;15.93;;
68858;SDS011;55864;49.238;8.092;2024-02-28T11:25:37;32.10;;;15.40;;
68858;SDS011;55864;49.238;8.092;2024-02-28T11:27:45;32.23;;;14.20;;
68858;SDS011;55864;49.238;8.092;2024-02-28T11:29:46;33.50;;;15.27;;
68858;SDS011;55864;49.238;8.092;2024-02-28T11:31:48;31.20;;;14.87;;
68858;SDS011;55864;49.238;8.092;2024-02-28T11:33:48;31.87;;;15.37;;
68858;SDS011;55864;49.238;8.092;2024-02-28T11:35:53;28.90;;;13.50;;
68858;SDS011;55864;49.238;8.092;2024-02-28T11:37:55;27.37;;;13.43;;
68858;SDS011;55864;49.238;8.092;2024-02-28T11:39:55;28.60;;;13.68;;
68858;SDS011;55864;49.238;8.092;2024-02-28T11:42:07;27.87;;;13.43;;
68858;SDS011;55864;49.238;8.092;2024-02-28T11:44:08;30.73;;;14.50;;
68858;SDS011;55864;49.238;8.092;2024-02-28T11:46:09;28.53;;;13.93;;
68858;SDS011;55864;49.238;8.092;2024-02-28T11:48:11;30.07;;;13.57;;
68858;SDS011;55864;49.238;8.092;2024-02-28T11:50:12;25.97;;;12.90;;
68858;SDS011;55864;49.238;8.092;2024-02-28T11:52:13;26.85;;;13.10;;